sensor_id;sensor_type;location;lat;lon;timestamp;P1;durP1;ratioP1;P2;durP2;ratioP2
5616;SDS011;2830;50.656;7.568;2022-08-21T00:00:20;19.40;;;3.73;;
5616;SDS011;2830;50.656;7.568;2022-08-21T00:02:51;16.57;;;3.60;;
5616;SDS011;2830;50.656;7.568;2022-08-21T00:05:25;18.13;;;3.77;;
5616;SDS011;2830;50.656;7.568;2022-08-21T00:07:52;15.13;;;3.30;;
5616;SDS011;2830;50.656;7.568;2022-08-21T00:10:20;19.47;;;4.07;;
5616;SDS011;2830;50.656;7.568;2022-08-21T00:12:47;16.23;;;3.60;;
5616;SDS011;2830;50.656;7.568;2022-08-21T00:15:16;17.07;;;3.80;;
5616;SDS011;2830;50.656;7.568;2022-08-21T00:17:45;15.73;;;4.07;;
5616;SDS011;2830;50.656;7.568;2022-08-21T00:20:13;14.37;;;3.30;;
5616;SDS011;2830;50.656;7.568;2022-08-21T00:22:41;17.10;;;3.43;;
5616;SDS011;2830;50.656;7.568;2022-08-21T00:25:09;14.60;;;4.17;;
5616;SDS011;2830;50.656;7.568;2022-08-21T00:27:36;14.90;;;3.60;;
5616;SDS011;2830;50.656;7.568;2022-08-21T00:30:04;20.40;;;5.20;;
5616;SDS011;2830;50.656;7.568;2022-08-21T00:32:32;15.37;;;3.70;;
5616;SDS011;2830;50.656;7.568;2022-08-21T00:34:59;17.27;;;3.13;;
5616;SDS011;2830;50.656;7.568;2022-08-21T00:37:26;15.47;;;3.77;;
5616;SDS011;2830;50.656;7.568;2022-08-21T00:39:55;14.73;;;3.60;;
5616;SDS011;2830;50.656;7.568;2022-08-21T00:42:22;15.23;;;3.47;;
5616;SDS011;2830;50.656;7.568;2022-08-21T00:44:49;15.13;;;3.30;;
5616;SDS011;2830;50.656;7.568;2022-08-21T00:47:17;15.20;;;3.60;;
5616;SDS011;2830;50.656;7.568;2022-08-21T00:49:44;15.57;;;3.47;;
5616;SDS011;2830;50.656;7.568;2022-08-21T00:52:13;15.10;;;3.87;;
5616;SDS011;2830;50.656;7.568;2022-08-21T00:54:45;17.43;;;3.47;;
5616;SDS011;2830;50.656;7.568;2022-08-21T00:57:15;13.93;;;3.40;;
5616;SDS011;2830;50.656;7.568;2022-08-21T00:59:46;18.27;;;5.00;;
5616;SDS011;2830;50.656;7.568;2022-08-21T01:02:15;13.67;;;3.30;;
5616;SDS011;2830;50.656;7.568;2022-08-21T01:04:43;14.47;;;3.20;;
5616;SDS011;2830;50.656;7.568;2022-08-21T01:07:11;16.50;;;3.40;;
5616;SDS011;2830;50.656;7.568;2022-08-21T01:09:39;13.00;;;3.00;;
5616;SDS011;2830;50.656;7.568;2022-08-21T01:12:06;14.90;;;3.67;;
5616;SDS011;2830;50.656;7.568;2022-08-21T01:14:34;20.57;;;4.10;;
5616;SDS011;2830;50.656;7.568;2022-08-21T01:17:02;16.47;;;3.43;;
5616;SDS011;2830;50.656;7.568;2022-08-21T01:19:29;15.60;;;3.20;;
5616;SDS011;2830;50.656;7.568;2022-08-21T01:21:56;17.20;;;3.30;;
5616;SDS011;2830;50.656;7.568;2022-08-21T01:24:23;14.80;;;3.60;;
5616;SDS011;2830;50.656;7.568;2022-08-21T01:26:50;14.90;;;3.70;;
5616;SDS011;2830;50.656;7.568;2022-08-21T01:32:02;14.80;;;3.40;;
5616;SDS011;2830;50.656;7.568;2022-08-21T01:34:31;18.07;;;3.37;;
5616;SDS011;2830;50.656;7.568;2022-08-21T01:37:00;16.67;;;3.13;;
5616;SDS011;2830;50.656;7.568;2022-08-21T01:39:26;14.67;;;3.47;;
5616;SDS011;2830;50.656;7.568;2022-08-21T01:41:53;14.30;;;3.47;;
5616;SDS011;2830;50.656;7.568;2022-08-21T01:44:21;15.17;;;3.07;;
5616;SDS011;2830;50.656;7.568;2022-08-21T01:46:49;13.43;;;3.33;;
5616;SDS011;2830;50.656;7.568;2022-08-21T01:49:16;14.10;;;3.03;;
5616;SDS011;2830;50.656;7.568;2022-08-21T01:51:43;13.90;;;3.60;;
5616;SDS011;2830;50.656;7.568;2022-08-21T01:54:10;15.17;;;3.93;;
5616;SDS011;2830;50.656;7.568;2022-08-21T01:56:42;15.77;;;3.50;;
5616;SDS011;2830;50.656;7.568;2022-08-21T01:59:11;15.27;;;3.73;;
5616;SDS011;2830;50.656;7.568;2022-08-21T02:01:45;12.83;;;3.03;;
5616;SDS011;2830;50.656;7.568;2022-08-21T02:04:12;15.90;;;3.67;;
5616;SDS011;2830;50.656;7.568;2022-08-21T02:06:38;14.80;;;3.50;;
5616;SDS011;2830;50.656;7.568;2022-08-21T02:09:06;15.03;;;3.70;;
5616;SDS011;2830;50.656;7.568;2022-08-21T02:11:34;16.20;;;3.87;;
5616;SDS011;2830;50.656;7.568;2022-08-21T02:14:02;15.47;;;4.43;;
5616;SDS011;2830;50.656;7.568;2022-08-21T02:16:29;15.10;;;3.63;;
5616;SDS011;2830;50.656;7.568;2022-08-21T02:18:56;14.47;;;4.07;;
5616;SDS011;2830;50.656;7.568;2022-08-21T02:21:23;15.97;;;3.80;;
5616;SDS011;2830;50.656;7.568;2022-08-21T02:24:02;21.70;;;3.87;;
5616;SDS011;2830;50.656;7.568;2022-08-21T02:26:29;14.17;;;3.43;;
5616;SDS011;2830;50.656;7.568;2022-08-21T02:28:56;14.13;;;3.13;;
5616;SDS011;2830;50.656;7.568;2022-08-21T02:31:24;17.70;;;4.10;;
5616;SDS011;2830;50.656;7.568;2022-08-21T02:33:51;16.27;;;3.70;;
5616;SDS011;2830;50.656;7.568;2022-08-21T02:36:18;15.70;;;3.30;;
5616;SDS011;2830;50.656;7.568;2022-08-21T02:38:44;15.60;;;3.90;;
5616;SDS011;2830;50.656;7.568;2022-08-21T02:41:15;14.50;;;3.80;;
5616;SDS011;2830;50.656;7.568;2022-08-21T02:43:43;18.17;;;3.43;;
5616;SDS011;2830;50.656;7.568;2022-08-21T02:46:11;14.47;;;3.20;;
5616;SDS011;2830;50.656;7.568;2022-08-21T02:48:39;16.90;;;3.50;;
5616;SDS011;2830;50.656;7.568;2022-08-21T02:51:12;15.37;;;3.47;;
5616;SDS011;2830;50.656;7.568;2022-08-21T02:53:41;15.13;;;3.63;;
5616;SDS011;2830;50.656;7.568;2022-08-21T02:56:14;14.83;;;3.87;;
5616;SDS011;2830;50.656;7.568;2022-08-21T02:58:45;14.67;;;3.20;;
5616;SDS011;2830;50.656;7.568;2022-08-21T03:01:13;16.23;;;3.80;;
5616;SDS011;2830;50.656;7.568;2022-08-21T03:03:42;14.10;;;3.43;;
5616;SDS011;2830;50.656;7.568;2022-08-21T03:06:12;13.90;;;4.00;;
5616;SDS011;2830;50.656;7.568;2022-08-21T03:08:41;15.60;;;3.20;;
5616;SDS011;2830;50.656;7.568;2022-08-21T03:11:11;16.40;;;3.60;;
5616;SDS011;2830;50.656;7.568;2022-08-21T03:13:39;14.07;;;3.43;;
5616;SDS011;2830;50.656;7.568;2022-08-21T03:16:06;14.90;;;4.53;;
5616;SDS011;2830;50.656;7.568;2022-08-21T03:18:35;14.33;;;3.50;;
5616;SDS011;2830;50.656;7.568;2022-08-21T03:21:05;14.47;;;3.87;;
5616;SDS011;2830;50.656;7.568;2022-08-21T03:23:32;16.13;;;3.50;;
5616;SDS011;2830;50.656;7.568;2022-08-21T03:25:59;13.80;;;3.40;;
5616;SDS011;2830;50.656;7.568;2022-08-21T03:28:26;13.90;;;3.60;;
5616;SDS011;2830;50.656;7.568;2022-08-21T03:30:53;14.93;;;3.23;;
5616;SDS011;2830;50.656;7.568;2022-08-21T03:33:21;16.77;;;4.80;;
5616;SDS011;2830;50.656;7.568;2022-08-21T03:35:51;19.20;;;4.37;;
5616;SDS011;2830;50.656;7.568;2022-08-21T03:38:28;14.00;;;3.77;;
5616;SDS011;2830;50.656;7.568;2022-08-21T03:40:58;16.53;;;4.37;;
5616;SDS011;2830;50.656;7.568;2022-08-21T03:43:26;15.37;;;3.43;;
5616;SDS011;2830;50.656;7.568;2022-08-21T03:45:57;13.90;;;3.47;;
5616;SDS011;2830;50.656;7.568;2022-08-21T03:48:26;16.40;;;4.13;;
5616;SDS011;2830;50.656;7.568;2022-08-21T03:50:53;14.03;;;3.43;;
5616;SDS011;2830;50.656;7.568;2022-08-21T03:53:19;15.73;;;3.70;;
5616;SDS011;2830;50.656;7.568;2022-08-21T03:55:47;13.80;;;3.77;;
5616;SDS011;2830;50.656;7.568;2022-08-21T03:58:17;15.57;;;3.20;;
5616;SDS011;2830;50.656;7.568;2022-08-21T04:00:49;14.60;;;3.57;;
5616;SDS011;2830;50.656;7.568;2022-08-21T04:03:18;15.67;;;3.80;;
5616;SDS011;2830;50.656;7.568;2022-08-21T04:05:45;14.30;;;3.57;;
5616;SDS011;2830;50.656;7.568;2022-08-21T04:08:13;18.80;;;4.07;;
5616;SDS011;2830;50.656;7.568;2022-08-21T04:10:40;14.70;;;3.83;;
5616;SDS011;2830;50.656;7.568;2022-08-21T04:13:09;14.80;;;3.87;;
5616;SDS011;2830;50.656;7.568;2022-08-21T04:15:35;12.87;;;3.60;;
5616;SDS011;2830;50.656;7.568;2022-08-21T04:18:03;16.17;;;3.77;;
5616;SDS011;2830;50.656;7.568;2022-08-21T04:20:30;17.60;;;4.07;;
5616;SDS011;2830;50.656;7.568;2022-08-21T04:22:57;15.87;;;3.40;;
5616;SDS011;2830;50.656;7.568;2022-08-21T04:25:24;14.07;;;3.33;;
5616;SDS011;2830;50.656;7.568;2022-08-21T04:27:54;13.17;;;3.43;;
5616;SDS011;2830;50.656;7.568;2022-08-21T04:30:21;12.60;;;3.00;;
5616;SDS011;2830;50.656;7.568;2022-08-21T04:32:54;15.87;;;3.70;;
5616;SDS011;2830;50.656;7.568;2022-08-21T04:35:22;14.93;;;4.03;;
5616;SDS011;2830;50.656;7.568;2022-08-21T04:37:50;14.10;;;4.80;;
5616;SDS011;2830;50.656;7.568;2022-08-21T04:40:18;13.60;;;3.37;;
5616;SDS011;2830;50.656;7.568;2022-08-21T04:42:49;14.70;;;3.30;;
5616;SDS011;2830;50.656;7.568;2022-08-21T04:45:25;13.03;;;3.57;;
5616;SDS011;2830;50.656;7.568;2022-08-21T04:47:55;13.27;;;3.50;;
5616;SDS011;2830;50.656;7.568;2022-08-21T04:53:24;13.23;;;3.37;;
5616;SDS011;2830;50.656;7.568;2022-08-21T04:55:56;15.70;;;4.43;;
5616;SDS011;2830;50.656;7.568;2022-08-21T04:58:24;15.13;;;3.60;;
5616;SDS011;2830;50.656;7.568;2022-08-21T05:00:59;16.57;;;3.90;;
5616;SDS011;2830;50.656;7.568;2022-08-21T05:03:27;13.27;;;4.03;;
5616;SDS011;2830;50.656;7.568;2022-08-21T05:05:55;18.77;;;3.73;;
5616;SDS011;2830;50.656;7.568;2022-08-21T05:08:22;12.40;;;3.20;;
5616;SDS011;2830;50.656;7.568;2022-08-21T05:10:51;15.27;;;3.90;;
5616;SDS011;2830;50.656;7.568;2022-08-21T05:13:23;16.17;;;3.40;;
5616;SDS011;2830;50.656;7.568;2022-08-21T05:15:50;15.93;;;3.20;;
5616;SDS011;2830;50.656;7.568;2022-08-21T05:18:17;14.57;;;3.93;;
5616;SDS011;2830;50.656;7.568;2022-08-21T05:20:43;13.80;;;3.30;;
5616;SDS011;2830;50.656;7.568;2022-08-21T05:23:12;14.80;;;3.67;;
5616;SDS011;2830;50.656;7.568;2022-08-21T05:25:39;16.10;;;3.50;;
5616;SDS011;2830;50.656;7.568;2022-08-21T05:28:07;14.73;;;3.93;;
5616;SDS011;2830;50.656;7.568;2022-08-21T05:30:34;12.87;;;3.17;;
5616;SDS011;2830;50.656;7.568;2022-08-21T05:33:02;13.20;;;3.47;;
5616;SDS011;2830;50.656;7.568;2022-08-21T05:35:30;15.03;;;4.40;;
5616;SDS011;2830;50.656;7.568;2022-08-21T05:37:58;14.73;;;3.57;;
5616;SDS011;2830;50.656;7.568;2022-08-21T05:40:33;13.93;;;3.60;;
5616;SDS011;2830;50.656;7.568;2022-08-21T05:43:00;16.00;;;4.47;;
5616;SDS011;2830;50.656;7.568;2022-08-21T05:45:29;15.87;;;4.57;;
5616;SDS011;2830;50.656;7.568;2022-08-21T05:48:17;19.17;;;5.00;;
5616;SDS011;2830;50.656;7.568;2022-08-21T05:50:49;14.87;;;4.20;;
5616;SDS011;2830;50.656;7.568;2022-08-21T05:53:18;14.37;;;3.83;;
5616;SDS011;2830;50.656;7.568;2022-08-21T05:55:46;21.57;;;3.77;;
5616;SDS011;2830;50.656;7.568;2022-08-21T05:58:17;15.10;;;4.20;;
5616;SDS011;2830;50.656;7.568;2022-08-21T06:00:46;15.37;;;3.80;;
5616;SDS011;2830;50.656;7.568;2022-08-21T06:03:15;14.77;;;4.87;;
5616;SDS011;2830;50.656;7.568;2022-08-21T06:05:44;13.37;;;4.43;;
5616;SDS011;2830;50.656;7.568;2022-08-21T06:08:11;17.53;;;4.80;;
5616;SDS011;2830;50.656;7.568;2022-08-21T06:10:40;11.97;;;4.03;;
5616;SDS011;2830;50.656;7.568;2022-08-21T06:13:08;13.73;;;4.00;;
5616;SDS011;2830;50.656;7.568;2022-08-21T06:15:35;13.27;;;4.00;;
5616;SDS011;2830;50.656;7.568;2022-08-21T06:18:01;11.20;;;3.40;;
5616;SDS011;2830;50.656;7.568;2022-08-21T06:20:28;14.13;;;5.37;;
5616;SDS011;2830;50.656;7.568;2022-08-21T06:22:55;15.83;;;5.27;;
5616;SDS011;2830;50.656;7.568;2022-08-21T06:25:22;14.00;;;4.70;;
5616;SDS011;2830;50.656;7.568;2022-08-21T06:27:51;13.23;;;4.10;;
5616;SDS011;2830;50.656;7.568;2022-08-21T06:30:18;15.30;;;4.80;;
5616;SDS011;2830;50.656;7.568;2022-08-21T06:32:45;13.10;;;3.70;;
5616;SDS011;2830;50.656;7.568;2022-08-21T06:35:11;14.30;;;5.13;;
5616;SDS011;2830;50.656;7.568;2022-08-21T06:37:38;19.80;;;4.67;;
5616;SDS011;2830;50.656;7.568;2022-08-21T06:40:05;12.30;;;3.50;;
5616;SDS011;2830;50.656;7.568;2022-08-21T06:42:38;15.20;;;4.73;;
5616;SDS011;2830;50.656;7.568;2022-08-21T06:45:07;16.17;;;4.77;;
5616;SDS011;2830;50.656;7.568;2022-08-21T06:47:34;14.60;;;4.50;;
5616;SDS011;2830;50.656;7.568;2022-08-21T06:50:02;15.70;;;5.17;;
5616;SDS011;2830;50.656;7.568;2022-08-21T06:52:30;15.40;;;5.40;;
5616;SDS011;2830;50.656;7.568;2022-08-21T06:54:57;13.97;;;4.10;;
5616;SDS011;2830;50.656;7.568;2022-08-21T06:57:24;14.97;;;4.13;;
5616;SDS011;2830;50.656;7.568;2022-08-21T06:59:51;15.23;;;3.73;;
5616;SDS011;2830;50.656;7.568;2022-08-21T07:02:18;15.33;;;3.73;;
5616;SDS011;2830;50.656;7.568;2022-08-21T07:04:45;15.10;;;3.90;;
5616;SDS011;2830;50.656;7.568;2022-08-21T07:07:11;18.20;;;4.10;;
5616;SDS011;2830;50.656;7.568;2022-08-21T07:09:38;15.53;;;4.40;;
5616;SDS011;2830;50.656;7.568;2022-08-21T07:12:05;14.80;;;4.40;;
5616;SDS011;2830;50.656;7.568;2022-08-21T07:14:32;15.30;;;4.70;;
5616;SDS011;2830;50.656;7.568;2022-08-21T07:16:59;16.43;;;5.23;;
5616;SDS011;2830;50.656;7.568;2022-08-21T07:19:26;15.00;;;4.13;;
5616;SDS011;2830;50.656;7.568;2022-08-21T07:21:54;13.67;;;3.73;;
5616;SDS011;2830;50.656;7.568;2022-08-21T07:24:26;16.57;;;4.57;;
5616;SDS011;2830;50.656;7.568;2022-08-21T07:26:53;13.40;;;3.40;;
5616;SDS011;2830;50.656;7.568;2022-08-21T07:29:19;16.63;;;4.67;;
5616;SDS011;2830;50.656;7.568;2022-08-21T07:31:46;14.70;;;3.90;;
5616;SDS011;2830;50.656;7.568;2022-08-21T07:34:13;15.97;;;4.23;;
5616;SDS011;2830;50.656;7.568;2022-08-21T07:36:40;15.87;;;3.77;;
5616;SDS011;2830;50.656;7.568;2022-08-21T07:39:08;18.50;;;4.63;;
5616;SDS011;2830;50.656;7.568;2022-08-21T07:41:34;14.80;;;4.23;;
5616;SDS011;2830;50.656;7.568;2022-08-21T07:44:01;18.50;;;4.87;;
5616;SDS011;2830;50.656;7.568;2022-08-21T07:46:31;17.80;;;4.50;;
5616;SDS011;2830;50.656;7.568;2022-08-21T07:48:58;19.43;;;5.33;;
5616;SDS011;2830;50.656;7.568;2022-08-21T07:51:25;19.70;;;6.10;;
5616;SDS011;2830;50.656;7.568;2022-08-21T07:53:54;21.40;;;5.50;;
5616;SDS011;2830;50.656;7.568;2022-08-21T07:56:22;19.03;;;5.80;;
5616;SDS011;2830;50.656;7.568;2022-08-21T07:58:49;19.77;;;5.93;;
5616;SDS011;2830;50.656;7.568;2022-08-21T08:01:16;22.30;;;6.23;;
5616;SDS011;2830;50.656;7.568;2022-08-21T08:03:43;19.70;;;6.80;;
5616;SDS011;2830;50.656;7.568;2022-08-21T08:06:11;20.30;;;6.00;;
5616;SDS011;2830;50.656;7.568;2022-08-21T08:08:42;22.50;;;6.40;;
5616;SDS011;2830;50.656;7.568;2022-08-21T08:11:09;18.43;;;5.27;;
5616;SDS011;2830;50.656;7.568;2022-08-21T08:13:41;19.57;;;4.80;;
5616;SDS011;2830;50.656;7.568;2022-08-21T08:16:08;18.90;;;5.70;;
5616;SDS011;2830;50.656;7.568;2022-08-21T08:18:35;23.53;;;5.90;;
5616;SDS011;2830;50.656;7.568;2022-08-21T08:21:02;20.27;;;5.67;;
5616;SDS011;2830;50.656;7.568;2022-08-21T08:23:29;28.47;;;6.20;;
5616;SDS011;2830;50.656;7.568;2022-08-21T08:25:57;22.00;;;5.33;;
5616;SDS011;2830;50.656;7.568;2022-08-21T08:28:24;23.30;;;6.53;;
5616;SDS011;2830;50.656;7.568;2022-08-21T08:30:51;27.43;;;8.83;;
5616;SDS011;2830;50.656;7.568;2022-08-21T08:33:18;24.63;;;6.90;;
5616;SDS011;2830;50.656;7.568;2022-08-21T08:35:46;18.30;;;5.80;;
5616;SDS011;2830;50.656;7.568;2022-08-21T08:38:15;20.90;;;6.43;;
5616;SDS011;2830;50.656;7.568;2022-08-21T08:43:29;20.67;;;4.70;;
5616;SDS011;2830;50.656;7.568;2022-08-21T08:46:01;19.57;;;4.77;;
5616;SDS011;2830;50.656;7.568;2022-08-21T08:51:00;15.67;;;3.40;;
5616;SDS011;2830;50.656;7.568;2022-08-21T08:53:45;20.27;;;3.60;;
5616;SDS011;2830;50.656;7.568;2022-08-21T08:56:15;20.37;;;3.30;;
5616;SDS011;2830;50.656;7.568;2022-08-21T08:58:47;18.90;;;2.97;;
5616;SDS011;2830;50.656;7.568;2022-08-21T09:01:17;17.80;;;2.93;;
5616;SDS011;2830;50.656;7.568;2022-08-21T09:03:45;18.43;;;2.50;;
5616;SDS011;2830;50.656;7.568;2022-08-21T09:09:02;15.63;;;2.33;;
5616;SDS011;2830;50.656;7.568;2022-08-21T09:11:57;16.37;;;2.60;;
5616;SDS011;2830;50.656;7.568;2022-08-21T09:17:23;15.40;;;2.50;;
5616;SDS011;2830;50.656;7.568;2022-08-21T09:20:21;18.30;;;3.30;;
5616;SDS011;2830;50.656;7.568;2022-08-21T09:25:56;18.67;;;3.50;;
5616;SDS011;2830;50.656;7.568;2022-08-21T09:28:31;15.70;;;2.30;;
5616;SDS011;2830;50.656;7.568;2022-08-21T09:31:04;14.80;;;2.10;;
5616;SDS011;2830;50.656;7.568;2022-08-21T09:33:34;15.17;;;2.23;;
5616;SDS011;2830;50.656;7.568;2022-08-21T09:36:01;18.43;;;2.57;;
5616;SDS011;2830;50.656;7.568;2022-08-21T09:38:29;17.13;;;2.23;;
5616;SDS011;2830;50.656;7.568;2022-08-21T09:41:00;15.50;;;2.90;;
5616;SDS011;2830;50.656;7.568;2022-08-21T09:43:29;15.77;;;2.20;;
5616;SDS011;2830;50.656;7.568;2022-08-21T09:46:02;14.03;;;2.67;;
5616;SDS011;2830;50.656;7.568;2022-08-21T09:48:44;15.80;;;2.43;;
5616;SDS011;2830;50.656;7.568;2022-08-21T09:51:16;16.03;;;2.67;;
5616;SDS011;2830;50.656;7.568;2022-08-21T09:53:46;12.63;;;2.00;;
5616;SDS011;2830;50.656;7.568;2022-08-21T09:56:31;16.87;;;2.60;;
5616;SDS011;2830;50.656;7.568;2022-08-21T09:59:24;16.37;;;2.90;;
5616;SDS011;2830;50.656;7.568;2022-08-21T10:02:03;17.03;;;2.20;;
5616;SDS011;2830;50.656;7.568;2022-08-21T10:04:51;13.97;;;2.23;;
5616;SDS011;2830;50.656;7.568;2022-08-21T10:07:24;14.17;;;1.93;;
5616;SDS011;2830;50.656;7.568;2022-08-21T10:15:45;14.17;;;1.97;;
5616;SDS011;2830;50.656;7.568;2022-08-21T10:18:47;18.00;;;2.57;;
5616;SDS011;2830;50.656;7.568;2022-08-21T10:21:54;17.90;;;3.00;;
5616;SDS011;2830;50.656;7.568;2022-08-21T10:24:48;18.00;;;2.47;;
5616;SDS011;2830;50.656;7.568;2022-08-21T10:27:28;17.80;;;2.80;;
5616;SDS011;2830;50.656;7.568;2022-08-21T10:30:24;18.07;;;2.63;;
5616;SDS011;2830;50.656;7.568;2022-08-21T10:33:13;13.40;;;2.30;;
5616;SDS011;2830;50.656;7.568;2022-08-21T10:38:38;15.77;;;2.80;;
5616;SDS011;2830;50.656;7.568;2022-08-21T10:44:09;14.47;;;1.80;;
5616;SDS011;2830;50.656;7.568;2022-08-21T10:47:05;12.80;;;1.70;;
5616;SDS011;2830;50.656;7.568;2022-08-21T10:52:21;14.83;;;1.43;;
5616;SDS011;2830;50.656;7.568;2022-08-21T10:55:14;15.07;;;1.80;;
5616;SDS011;2830;50.656;7.568;2022-08-21T11:00:33;14.03;;;2.10;;
5616;SDS011;2830;50.656;7.568;2022-08-21T11:03:11;14.37;;;1.90;;
5616;SDS011;2830;50.656;7.568;2022-08-21T11:05:48;15.43;;;2.00;;
5616;SDS011;2830;50.656;7.568;2022-08-21T11:08:24;13.77;;;1.63;;
5616;SDS011;2830;50.656;7.568;2022-08-21T11:13:41;14.70;;;2.27;;
5616;SDS011;2830;50.656;7.568;2022-08-21T11:24:32;14.13;;;1.73;;
5616;SDS011;2830;50.656;7.568;2022-08-21T11:27:12;15.10;;;1.87;;
5616;SDS011;2830;50.656;7.568;2022-08-21T11:30:17;14.33;;;1.80;;
5616;SDS011;2830;50.656;7.568;2022-08-21T11:35:53;18.10;;;2.13;;
5616;SDS011;2830;50.656;7.568;2022-08-21T11:38:34;13.37;;;1.50;;
5616;SDS011;2830;50.656;7.568;2022-08-21T11:49:26;13.40;;;1.50;;
5616;SDS011;2830;50.656;7.568;2022-08-21T11:52:29;15.47;;;2.20;;
5616;SDS011;2830;50.656;7.568;2022-08-21T11:55:16;13.17;;;1.53;;
5616;SDS011;2830;50.656;7.568;2022-08-21T12:02:58;13.40;;;1.80;;
5616;SDS011;2830;50.656;7.568;2022-08-21T12:05:55;17.90;;;1.77;;
5616;SDS011;2830;50.656;7.568;2022-08-21T12:08:42;13.97;;;1.77;;
5616;SDS011;2830;50.656;7.568;2022-08-21T12:16:42;15.27;;;1.57;;
5616;SDS011;2830;50.656;7.568;2022-08-21T12:19:14;14.27;;;2.17;;
5616;SDS011;2830;50.656;7.568;2022-08-21T12:24:48;15.10;;;2.33;;
5616;SDS011;2830;50.656;7.568;2022-08-21T12:27:29;12.50;;;1.60;;
5616;SDS011;2830;50.656;7.568;2022-08-21T12:33:18;12.77;;;1.43;;
5616;SDS011;2830;50.656;7.568;2022-08-21T12:35:52;13.60;;;1.80;;
5616;SDS011;2830;50.656;7.568;2022-08-21T12:41:42;13.30;;;1.77;;
5616;SDS011;2830;50.656;7.568;2022-08-21T12:44:20;13.70;;;1.37;;
5616;SDS011;2830;50.656;7.568;2022-08-21T12:47:03;13.20;;;1.20;;
5616;SDS011;2830;50.656;7.568;2022-08-21T12:49:35;13.47;;;1.60;;
5616;SDS011;2830;50.656;7.568;2022-08-21T12:52:21;14.27;;;1.80;;
5616;SDS011;2830;50.656;7.568;2022-08-21T12:55:04;13.83;;;1.40;;
5616;SDS011;2830;50.656;7.568;2022-08-21T12:57:31;13.57;;;1.63;;
5616;SDS011;2830;50.656;7.568;2022-08-21T12:59:59;14.37;;;1.57;;
5616;SDS011;2830;50.656;7.568;2022-08-21T13:02:31;13.13;;;1.50;;
5616;SDS011;2830;50.656;7.568;2022-08-21T13:05:02;14.60;;;1.90;;
5616;SDS011;2830;50.656;7.568;2022-08-21T13:07:32;15.80;;;2.17;;
5616;SDS011;2830;50.656;7.568;2022-08-21T13:10:21;14.00;;;1.40;;
5616;SDS011;2830;50.656;7.568;2022-08-21T13:12:54;14.23;;;1.60;;
5616;SDS011;2830;50.656;7.568;2022-08-21T13:15:30;14.53;;;1.80;;
5616;SDS011;2830;50.656;7.568;2022-08-21T13:17:59;14.00;;;1.60;;
5616;SDS011;2830;50.656;7.568;2022-08-21T13:20:29;13.80;;;1.50;;
5616;SDS011;2830;50.656;7.568;2022-08-21T13:23:02;14.80;;;1.73;;
5616;SDS011;2830;50.656;7.568;2022-08-21T13:25:34;15.70;;;1.73;;
5616;SDS011;2830;50.656;7.568;2022-08-21T13:30:37;13.30;;;1.60;;
5616;SDS011;2830;50.656;7.568;2022-08-21T13:33:08;12.57;;;1.20;;
5616;SDS011;2830;50.656;7.568;2022-08-21T13:35:51;13.80;;;1.50;;
5616;SDS011;2830;50.656;7.568;2022-08-21T13:38:30;14.17;;;1.70;;
5616;SDS011;2830;50.656;7.568;2022-08-21T13:41:01;13.93;;;1.43;;
5616;SDS011;2830;50.656;7.568;2022-08-21T13:43:43;15.43;;;1.73;;
5616;SDS011;2830;50.656;7.568;2022-08-21T13:46:13;16.10;;;1.80;;
5616;SDS011;2830;50.656;7.568;2022-08-21T13:48:41;14.70;;;1.80;;
5616;SDS011;2830;50.656;7.568;2022-08-21T13:51:09;14.07;;;1.67;;
5616;SDS011;2830;50.656;7.568;2022-08-21T13:53:44;14.47;;;1.63;;
5616;SDS011;2830;50.656;7.568;2022-08-21T13:56:24;19.87;;;1.80;;
5616;SDS011;2830;50.656;7.568;2022-08-21T13:58:57;14.83;;;1.60;;
5616;SDS011;2830;50.656;7.568;2022-08-21T14:01:32;15.53;;;2.30;;
5616;SDS011;2830;50.656;7.568;2022-08-21T14:04:16;15.80;;;2.10;;
5616;SDS011;2830;50.656;7.568;2022-08-21T14:06:48;13.57;;;1.77;;
5616;SDS011;2830;50.656;7.568;2022-08-21T14:09:32;14.90;;;1.73;;
5616;SDS011;2830;50.656;7.568;2022-08-21T14:12:16;15.63;;;1.43;;
5616;SDS011;2830;50.656;7.568;2022-08-21T14:15:04;14.70;;;1.33;;
5616;SDS011;2830;50.656;7.568;2022-08-21T14:17:33;17.13;;;2.40;;
5616;SDS011;2830;50.656;7.568;2022-08-21T14:20:05;14.03;;;1.93;;
5616;SDS011;2830;50.656;7.568;2022-08-21T14:22:38;14.83;;;1.70;;
5616;SDS011;2830;50.656;7.568;2022-08-21T14:28:10;17.23;;;2.10;;
5616;SDS011;2830;50.656;7.568;2022-08-21T14:30:45;14.37;;;1.80;;
5616;SDS011;2830;50.656;7.568;2022-08-21T14:33:25;16.33;;;1.97;;
5616;SDS011;2830;50.656;7.568;2022-08-21T14:35:54;16.67;;;1.70;;
5616;SDS011;2830;50.656;7.568;2022-08-21T14:38:22;13.87;;;1.67;;
5616;SDS011;2830;50.656;7.568;2022-08-21T14:40:59;13.40;;;1.67;;
5616;SDS011;2830;50.656;7.568;2022-08-21T14:43:34;14.17;;;1.73;;
5616;SDS011;2830;50.656;7.568;2022-08-21T14:46:01;14.50;;;1.90;;
5616;SDS011;2830;50.656;7.568;2022-08-21T14:48:27;15.87;;;1.90;;
5616;SDS011;2830;50.656;7.568;2022-08-21T14:50:54;14.40;;;1.80;;
5616;SDS011;2830;50.656;7.568;2022-08-21T14:53:25;13.90;;;2.00;;
5616;SDS011;2830;50.656;7.568;2022-08-21T14:55:53;14.67;;;1.83;;
5616;SDS011;2830;50.656;7.568;2022-08-21T14:58:37;14.87;;;2.33;;
5616;SDS011;2830;50.656;7.568;2022-08-21T15:01:06;15.30;;;2.60;;
5616;SDS011;2830;50.656;7.568;2022-08-21T15:03:34;14.60;;;2.13;;
5616;SDS011;2830;50.656;7.568;2022-08-21T15:06:02;17.80;;;1.63;;
5616;SDS011;2830;50.656;7.568;2022-08-21T15:08:30;24.80;;;2.23;;
5616;SDS011;2830;50.656;7.568;2022-08-21T15:10:58;14.60;;;1.90;;
5616;SDS011;2830;50.656;7.568;2022-08-21T15:13:38;15.60;;;1.87;;
5616;SDS011;2830;50.656;7.568;2022-08-21T15:16:05;13.60;;;1.43;;
5616;SDS011;2830;50.656;7.568;2022-08-21T15:18:35;21.03;;;2.50;;
5616;SDS011;2830;50.656;7.568;2022-08-21T15:21:01;17.80;;;3.10;;
5616;SDS011;2830;50.656;7.568;2022-08-21T15:23:28;15.77;;;1.90;;
5616;SDS011;2830;50.656;7.568;2022-08-21T15:25:55;14.13;;;1.70;;
5616;SDS011;2830;50.656;7.568;2022-08-21T15:28:24;15.33;;;2.00;;
5616;SDS011;2830;50.656;7.568;2022-08-21T15:30:56;15.53;;;1.63;;
5616;SDS011;2830;50.656;7.568;2022-08-21T15:33:25;14.47;;;1.60;;
5616;SDS011;2830;50.656;7.568;2022-08-21T15:35:51;16.13;;;1.90;;
5616;SDS011;2830;50.656;7.568;2022-08-21T15:38:18;13.87;;;1.67;;
5616;SDS011;2830;50.656;7.568;2022-08-21T15:40:45;13.10;;;1.37;;
5616;SDS011;2830;50.656;7.568;2022-08-21T15:43:22;16.53;;;1.83;;
5616;SDS011;2830;50.656;7.568;2022-08-21T15:45:55;12.90;;;1.30;;
5616;SDS011;2830;50.656;7.568;2022-08-21T15:48:24;14.93;;;1.87;;
5616;SDS011;2830;50.656;7.568;2022-08-21T15:50:50;13.37;;;1.70;;
5616;SDS011;2830;50.656;7.568;2022-08-21T15:53:17;13.77;;;1.33;;
5616;SDS011;2830;50.656;7.568;2022-08-21T15:55:44;14.57;;;2.00;;
5616;SDS011;2830;50.656;7.568;2022-08-21T15:58:14;14.10;;;1.80;;
5616;SDS011;2830;50.656;7.568;2022-08-21T16:00:43;16.00;;;1.70;;
5616;SDS011;2830;50.656;7.568;2022-08-21T16:03:14;16.23;;;1.90;;
5616;SDS011;2830;50.656;7.568;2022-08-21T16:05:45;14.67;;;1.80;;
5616;SDS011;2830;50.656;7.568;2022-08-21T16:08:14;14.33;;;1.50;;
5616;SDS011;2830;50.656;7.568;2022-08-21T16:10:41;15.00;;;1.57;;
5616;SDS011;2830;50.656;7.568;2022-08-21T16:13:11;19.73;;;1.93;;
5616;SDS011;2830;50.656;7.568;2022-08-21T16:15:44;14.40;;;1.63;;
5616;SDS011;2830;50.656;7.568;2022-08-21T16:18:11;15.03;;;1.80;;
5616;SDS011;2830;50.656;7.568;2022-08-21T16:20:38;13.10;;;1.73;;
5616;SDS011;2830;50.656;7.568;2022-08-21T16:23:04;15.17;;;1.90;;
5616;SDS011;2830;50.656;7.568;2022-08-21T16:25:33;15.07;;;1.83;;
5616;SDS011;2830;50.656;7.568;2022-08-21T16:28:06;14.13;;;2.00;;
5616;SDS011;2830;50.656;7.568;2022-08-21T16:30:38;14.47;;;1.80;;
5616;SDS011;2830;50.656;7.568;2022-08-21T16:33:05;12.27;;;1.53;;
5616;SDS011;2830;50.656;7.568;2022-08-21T16:35:37;18.10;;;2.20;;
5616;SDS011;2830;50.656;7.568;2022-08-21T16:38:04;15.57;;;2.30;;
5616;SDS011;2830;50.656;7.568;2022-08-21T16:40:31;13.53;;;1.70;;
5616;SDS011;2830;50.656;7.568;2022-08-21T16:42:57;16.57;;;1.87;;
5616;SDS011;2830;50.656;7.568;2022-08-21T16:45:24;14.03;;;1.90;;
5616;SDS011;2830;50.656;7.568;2022-08-21T16:47:58;15.23;;;1.77;;